createdAt,value
2023-08-08T09:13:15.104Z,77.81
2023-08-08T09:14:15.001Z,79.38
2023-08-08T09:15:14.942Z,80.83
2023-08-08T09:16:14.895Z,81.88
2023-08-08T09:17:14.846Z,79.28
2023-08-08T09:18:15.266Z,78.42
2023-08-08T09:19:14.623Z,76.59
2023-08-08T09:20:14.651Z,77.17
2023-08-08T09:21:14.543Z,77.21
2023-08-08T09:22:14.424Z,78.75
2023-08-08T09:23:14.321Z,79.33
2023-08-08T09:24:14.242Z,79.03
2023-08-08T09:25:14.167Z,76.06
2023-08-08T09:26:14.109Z,75.76
2023-08-08T09:27:14.013Z,76.92
2023-08-08T09:28:13.943Z,76.63
2023-08-08T09:29:13.955Z,75.96
2023-08-08T09:30:13.784Z,75.19
2023-08-08T09:31:13.740Z,75.28
2023-08-08T09:32:13.640Z,75.09
2023-08-08T09:33:13.564Z,74.22
2023-08-08T09:34:13.492Z,75.57
2023-08-08T09:35:13.443Z,75.19
2023-08-08T09:36:13.333Z,74.99
2023-08-08T09:37:13.259Z,75.67
2023-08-08T09:38:13.187Z,75.57
2023-08-08T09:39:13.099Z,75.86
2023-08-08T09:40:13.189Z,75.76
2023-08-08T09:41:12.954Z,75.76
2023-08-08T09:42:12.874Z,76.15
2023-08-08T09:43:12.809Z,76.73
2023-08-08T09:44:12.727Z,76.73
2023-08-08T09:45:12.675Z,75.76
2023-08-08T09:46:12.588Z,74.65
2023-08-08T09:47:12.498Z,73.58
2023-08-08T09:48:12.482Z,72.11
2023-08-08T09:49:12.361Z,71.91
2023-08-08T09:50:12.274Z,73.94
2023-08-08T09:51:12.203Z,73.36
2023-08-08T09:52:12.122Z,73.90
2023-08-08T09:53:12.042Z,73.42
2023-08-08T09:54:11.977Z,73.42
2023-08-08T09:55:11.971Z,73.61
2023-08-08T09:56:11.945Z,74.38
2023-08-08T09:57:11.818Z,75.34
2023-08-08T09:58:11.676Z,73.71
2023-08-08T09:59:11.589Z,73.71
2023-08-08T10:00:11.546Z,74.48
2023-08-08T10:01:11.470Z,73.74
2023-08-08T10:02:11.368Z,75.38
2023-08-08T10:03:11.415Z,77.88
2023-08-08T10:04:11.218Z,75.99
2023-08-08T10:05:11.147Z,75.23
2023-08-08T10:06:11.071Z,72.33
2023-08-08T10:07:10.995Z,72.63
2023-08-08T10:08:10.918Z,73.49
2023-08-08T10:09:10.840Z,73.78
2023-08-08T10:10:10.771Z,71.47
2023-08-08T10:11:10.690Z,73.58
2023-08-08T10:12:10.616Z,75.51
2023-08-08T10:13:10.540Z,74.01
2023-08-08T10:14:10.471Z,74.40
2023-08-08T10:15:10.393Z,75.84
2023-08-08T10:16:10.392Z,72.08
2023-08-08T10:17:10.265Z,70.92
2023-08-08T10:18:10.161Z,70.73
2023-08-08T10:19:10.093Z,71.41
2023-08-08T10:20:10.018Z,72.08
2023-08-08T10:21:09.940Z,72.66
2023-08-08T10:22:09.950Z,73.33
2023-08-08T10:23:09.791Z,70.64
2023-08-08T10:24:09.719Z,70.15
2023-08-08T10:25:09.639Z,72.37
2023-08-08T10:26:09.562Z,71.70
2023-08-08T10:27:09.495Z,70.35
2023-08-08T10:28:20.184Z,70.64
2023-08-08T10:29:09.342Z,71.60
2023-08-08T10:30:09.270Z,71.22
2023-08-08T10:31:09.254Z,69.67
2023-08-08T10:32:09.131Z,71.50
2023-08-08T10:33:09.149Z,71.22
2023-08-08T10:34:09.086Z,69.77
2023-08-08T10:35:08.985Z,69.38
2023-08-08T10:36:08.830Z,70.44
2023-08-08T10:37:08.740Z,69.57
2023-08-08T10:38:08.661Z,70.44
2023-08-08T10:39:08.582Z,73.43
2023-08-08T10:40:08.593Z,73.91
2023-08-08T10:41:08.437Z,73.33
2023-08-08T10:42:08.363Z,72.85
2023-08-08T10:43:08.287Z,71.41
2023-08-08T10:44:08.234Z,71.22
2023-08-08T10:45:08.137Z,71.98
2023-08-08T10:46:13.559Z,73.62
2023-08-08T10:47:07.993Z,72.08
2023-08-08T10:48:07.933Z,71.41
2023-08-08T10:49:07.846Z,69.19
2023-08-08T10:50:07.790Z,66.97
2023-08-08T10:51:07.734Z,66.69
2023-08-08T10:52:07.621Z,65.78
2023-08-08T10:53:07.892Z,66.55
2023-08-08T10:54:07.466Z,67.26
2023-08-08T10:55:07.392Z,67.23
2023-08-08T10:56:07.380Z,66.75
2023-08-08T10:57:07.244Z,66.36
2023-08-08T10:58:07.175Z,66.55
2023-08-08T10:59:07.098Z,66.46
2023-08-08T11:00:07.012Z,66.55
2023-08-08T11:01:06.977Z,65.50
2023-08-08T11:02:06.892Z,65.59
2023-08-08T11:03:06.788Z,66.85
2023-08-08T11:04:06.712Z,67.74
2023-08-08T11:05:06.656Z,69.77
2023-08-08T11:06:06.593Z,68.61
2023-08-08T11:07:06.500Z,68.13
2023-08-08T11:08:06.424Z,68.04
2023-08-08T11:09:06.340Z,66.75
2023-08-08T11:10:06.264Z,66.07
2023-08-08T11:11:06.193Z,66.27
2023-08-08T11:12:06.123Z,69.38
2023-08-08T11:13:06.034Z,68.42
2023-08-08T11:14:05.964Z,68.04
2023-08-08T11:15:06.014Z,69.19
2023-08-08T11:16:05.849Z,67.55
2023-08-08T11:17:05.741Z,66.78
2023-08-08T11:18:05.801Z,66.97
2023-08-08T11:19:05.592Z,69.67
2023-08-08T11:20:05.533Z,64.95
2023-08-08T11:21:17.661Z,65.91
2023-08-08T11:22:05.368Z,65.63
2023-08-08T11:23:05.319Z,65.81
2023-08-08T11:24:05.221Z,64.76
2023-08-08T11:25:05.148Z,65.33
2023-08-08T11:27:04.997Z,66.49
2023-08-08T11:28:04.912Z,63.92
2023-08-08T11:29:04.845Z,62.93
2023-08-08T11:30:05.356Z,64.76
2023-08-08T11:31:04.750Z,66.39
2023-08-08T11:32:04.804Z,66.01
2023-08-08T11:34:04.479Z,64.66
2023-08-08T11:35:04.392Z,66.11
2023-08-08T11:36:04.326Z,66.59
2023-08-08T11:37:04.240Z,67.97
2023-08-08T11:38:04.184Z,66.72
2023-08-08T11:39:04.097Z,64.79
2023-08-08T11:40:04.025Z,64.89
2023-08-08T11:41:03.942Z,65.66
2023-08-08T11:42:04.256Z,66.62
2023-08-08T11:43:03.801Z,64.69
2023-08-08T11:44:03.716Z,63.63
2023-08-08T11:45:03.642Z,66.85
2023-08-08T11:46:03.563Z,67.43
2023-08-08T11:47:04.983Z,66.52
2023-08-08T11:48:03.475Z,66.36
2023-08-08T11:49:03.345Z,66.85
2023-08-08T11:50:03.380Z,66.17
2023-08-08T11:51:03.197Z,64.82
2023-08-08T11:52:03.303Z,62.79
2023-08-08T11:53:04.187Z,62.89
2023-08-08T11:54:02.975Z,65.11
2023-08-08T11:55:02.901Z,63.37
2023-08-08T11:56:02.817Z,63.47
2023-08-08T11:57:02.758Z,64.95
2023-08-08T11:58:02.747Z,64.15
2023-08-08T11:59:02.607Z,65.11
2023-08-08T12:00:02.519Z,65.78
2023-08-08T12:01:02.521Z,69.74
2023-08-08T12:02:02.576Z,68.10
2023-08-08T12:03:02.475Z,65.11
2023-08-08T12:04:02.257Z,61.16
2023-08-08T12:05:02.157Z,64.43
2023-08-08T12:06:02.073Z,62.51
2023-08-08T12:07:02.092Z,60.64
2023-08-08T12:08:01.932Z,61.03
2023-08-08T12:09:01.862Z,62.02
2023-08-08T12:10:01.807Z,65.69
2023-08-08T12:11:01.719Z,62.89
2023-08-08T12:12:01.834Z,62.99
2023-08-08T12:13:01.613Z,61.64
2023-08-08T12:14:01.493Z,61.06
2023-08-08T12:15:08.201Z,62.89
2023-08-08T12:16:01.554Z,63.85
2023-08-08T12:17:01.398Z,62.51
2023-08-08T12:18:01.345Z,62.99
2023-08-08T12:19:01.115Z,63.18
2023-08-08T12:20:01.039Z,62.99
2023-08-08T12:21:00.954Z,63.70
2023-08-08T12:22:00.889Z,63.60
2023-08-08T12:23:00.923Z,65.91
2023-08-08T12:24:00.745Z,65.24
2023-08-08T12:25:00.670Z,64.66
2023-08-08T12:26:00.585Z,65.53
2023-08-08T12:27:00.674Z,65.14
2023-08-08T12:28:00.470Z,64.76
2023-08-08T12:29:00.375Z,64.37
2023-08-08T12:30:00.436Z,64.95
2023-08-08T12:31:00.243Z,60.99
2023-08-08T12:32:00.214Z,63.40
2023-08-08T12:33:00.095Z,61.22
2023-08-08T12:34:00.001Z,60.73
2023-08-08T12:34:59.952Z,60.93
2023-08-08T12:36:01.555Z,60.61
2023-08-08T12:37:00.316Z,60.93
2023-08-08T12:37:59.697Z,62.18
2023-08-08T12:38:59.655Z,61.47
2023-08-08T12:39:59.556Z,61.67
2023-08-08T12:40:59.555Z,59.35
2023-08-08T12:41:59.618Z,58.77
2023-08-08T12:42:59.406Z,57.93
2023-08-08T12:43:59.894Z,57.81
2023-08-08T12:44:59.175Z,60.80
2023-08-08T12:45:59.185Z,61.09
2023-08-08T12:46:59.248Z,60.64
2023-08-08T12:47:59.009Z,60.16
2023-08-08T12:48:58.883Z,61.60
2023-08-08T12:49:58.848Z,60.25
2023-08-08T12:50:58.787Z,59.09
2023-08-08T12:51:58.659Z,59.38
2023-08-08T12:52:58.705Z,60.83
2023-08-08T12:53:58.519Z,59.77
2023-08-08T12:54:59.972Z,59.58
2023-08-08T12:55:58.377Z,59.00
2023-08-08T12:56:58.496Z,57.26
2023-08-08T12:57:58.214Z,58.12
2023-08-08T12:58:58.146Z,58.32
2023-08-08T12:59:58.070Z,61.05
2023-08-08T13:00:58.061Z,62.89
2023-08-08T13:01:58.398Z,60.47
2023-08-08T13:02:57.895Z,59.89
2023-08-08T13:04:18.225Z,59.41
2023-08-08T13:04:57.732Z,59.60
2023-08-08T13:05:57.631Z,60.67
2023-08-08T13:06:59.058Z,60.09
2023-08-08T13:07:57.484Z,58.45
2023-08-08T13:08:57.430Z,58.15
2023-08-08T13:09:57.335Z,57.19
2023-08-08T13:10:57.262Z,55.55
2023-08-08T13:11:57.182Z,56.22
2023-08-08T13:12:57.119Z,56.90
2023-08-08T13:13:57.286Z,58.54
2023-08-08T13:14:56.987Z,57.48
2023-08-08T13:15:57.024Z,58.25
2023-08-08T13:16:56.828Z,59.02
2023-08-08T13:17:56.755Z,56.20
2023-08-08T13:18:56.673Z,55.23
2023-08-08T13:19:56.598Z,56.77
2023-08-08T13:20:56.529Z,57.06
2023-08-08T13:21:56.447Z,57.26
2023-08-08T13:22:56.387Z,55.90
2023-08-08T13:23:56.311Z,55.13
2023-08-08T13:24:56.230Z,55.42
2023-08-08T13:25:56.163Z,54.36
2023-08-08T13:26:56.091Z,56.00
2023-08-08T13:27:56.010Z,59.38
2023-08-08T13:28:56.055Z,60.06
2023-08-08T13:29:55.874Z,58.90
2023-08-08T13:30:55.819Z,57.16
2023-08-08T13:31:55.707Z,55.23
2023-08-08T13:32:55.692Z,54.62
2023-08-08T13:33:55.573Z,55.10
2023-08-08T13:34:55.493Z,56.94
2023-08-08T13:35:55.421Z,56.16
2023-08-08T13:36:55.348Z,55.49
2023-08-08T13:37:55.273Z,57.14
2023-08-08T13:38:55.605Z,60.03
2023-08-08T13:39:55.133Z,59.96
2023-08-08T13:40:55.067Z,58.58
2023-08-08T13:41:54.979Z,60.31
2023-08-08T13:42:54.930Z,58.00
2023-08-08T13:43:54.830Z,58.39
2023-08-08T13:44:55.497Z,58.29
2023-08-08T13:45:54.865Z,56.56
2023-08-08T13:46:56.304Z,56.16
2023-08-08T13:47:54.577Z,57.52
2023-08-08T13:48:54.473Z,56.36
2023-08-08T13:49:54.404Z,57.14
2023-08-08T13:50:54.324Z,58.00
2023-08-08T13:51:54.244Z,57.23
2023-08-08T13:52:54.177Z,56.94
2023-08-08T13:53:54.094Z,57.04
2023-08-08T13:54:54.022Z,56.16
2023-08-08T13:55:53.958Z,58.10
2023-08-08T13:56:53.877Z,59.58
2023-08-08T13:57:53.802Z,58.90
2023-08-08T13:58:53.727Z,58.19
2023-08-08T13:59:53.653Z,58.61
2023-08-08T14:00:53.593Z,58.22
2023-08-08T14:01:53.560Z,56.36
2023-08-08T14:02:53.592Z,56.84
2023-08-08T14:03:53.526Z,58.19
2023-08-08T14:04:53.285Z,60.13
2023-08-08T14:05:53.213Z,58.39
2023-08-08T14:06:53.148Z,59.16
2023-08-08T14:07:53.061Z,60.41
2023-08-08T14:08:52.989Z,57.93
2023-08-08T14:09:52.914Z,56.96
2023-08-08T14:10:52.849Z,58.32
2023-08-08T14:11:52.767Z,57.06
2023-08-08T14:12:52.698Z,56.84
2023-08-08T14:13:52.618Z,57.84
2023-08-08T14:14:52.553Z,57.74
2023-08-08T14:15:52.504Z,57.26
2023-08-08T14:16:53.900Z,58.29
2023-08-08T14:17:52.381Z,56.94
2023-08-08T14:18:52.266Z,57.84
2023-08-08T14:19:52.176Z,57.93
2023-08-08T14:20:52.102Z,57.93
2023-08-08T14:21:52.036Z,58.12
2023-08-08T14:22:51.964Z,58.42
2023-08-08T14:23:51.886Z,59.77
2023-08-08T14:24:51.809Z,57.93
2023-08-08T14:25:51.732Z,56.00
2023-08-08T14:26:51.662Z,56.41
2023-08-08T14:27:51.580Z,56.41
2023-08-08T14:28:51.512Z,56.03
2023-08-08T14:29:51.445Z,54.77
2023-08-08T14:30:51.369Z,54.10
2023-08-08T14:31:59.770Z,52.55
2023-08-08T14:32:51.261Z,53.52
2023-08-08T14:33:51.154Z,54.39
2023-08-08T14:34:51.069Z,53.61
2023-08-08T14:35:51.013Z,52.81
2023-08-08T14:36:50.932Z,53.81
2023-08-08T14:37:50.858Z,54.27
2023-08-08T14:38:50.781Z,54.07
2023-08-08T14:39:51.956Z,54.07
2023-08-08T14:40:50.631Z,54.07
2023-08-08T14:41:50.553Z,55.04
2023-08-08T14:42:52.445Z,55.71
2023-08-08T14:43:50.414Z,54.46
2023-08-08T14:44:50.347Z,53.97
2023-08-08T14:45:50.288Z,54.27
2023-08-08T14:46:50.187Z,55.33
2023-08-08T14:47:50.144Z,55.90
2023-08-08T14:48:50.143Z,56.90
2023-08-08T14:49:50.182Z,58.45
2023-08-08T14:50:49.895Z,58.35
2023-08-08T14:51:49.822Z,55.52
2023-08-08T14:52:49.943Z,56.96
2023-08-08T14:53:49.677Z,58.42
2023-08-08T14:54:49.616Z,57.74
2023-08-08T14:55:49.533Z,58.32
2023-08-08T14:56:49.473Z,57.74
2023-08-08T14:57:49.386Z,57.93
2023-08-08T14:58:49.299Z,57.26
2023-08-08T14:59:49.224Z,57.06
2023-08-08T15:00:49.181Z,54.27
2023-08-08T15:01:49.287Z,55.62
2023-08-08T15:02:49.038Z,56.13
2023-08-08T15:03:49.015Z,56.03
2023-08-08T15:04:50.624Z,55.42
2023-08-08T15:05:48.795Z,56.48
2023-08-08T15:06:48.721Z,54.27
2023-08-08T15:07:48.655Z,53.11
2023-08-08T15:08:48.574Z,53.59
2023-08-08T15:09:48.533Z,53.08
2023-08-08T15:10:48.420Z,54.14
2023-08-08T15:11:48.352Z,55.30
2023-08-08T15:12:48.282Z,54.43
2023-08-08T15:13:48.208Z,55.10
2023-08-08T15:14:48.145Z,55.30
2023-08-08T15:15:48.103Z,55.49
2023-08-08T15:16:47.981Z,55.40
2023-08-08T15:17:47.920Z,54.14
2023-08-08T15:18:47.843Z,56.16
2023-08-08T15:19:47.759Z,56.94
2023-08-08T15:20:47.688Z,55.30
2023-08-08T15:21:47.615Z,54.72
2023-08-08T15:22:47.549Z,57.04
2023-08-08T15:23:47.466Z,55.88
2023-08-08T15:24:47.390Z,57.04
2023-08-08T15:25:47.326Z,59.06
2023-08-08T15:26:47.236Z,56.46
2023-08-08T15:27:47.168Z,56.74
2023-08-08T15:28:47.343Z,57.81
2023-08-08T15:29:47.016Z,57.04
2023-08-08T15:30:46.949Z,57.90
2023-08-08T15:31:46.902Z,58.48
2023-08-08T15:32:46.840Z,60.03
2023-08-08T15:33:46.755Z,58.77
2023-08-08T15:34:46.667Z,58.77
2023-08-08T15:35:46.583Z,59.93
2023-08-08T15:36:46.606Z,60.22
2023-08-08T15:37:46.429Z,57.71
2023-08-08T15:38:46.361Z,58.39
2023-08-08T15:39:46.281Z,60.22
2023-08-08T15:40:46.223Z,59.35
2023-08-08T15:41:46.128Z,57.62
2023-08-08T15:42:46.063Z,57.81
2023-08-08T15:43:45.992Z,58.77
2023-08-08T15:44:45.911Z,60.51
2023-08-08T15:45:45.835Z,60.71
2023-08-08T15:46:45.784Z,61.19
2023-08-08T15:47:45.713Z,59.83
2023-08-08T15:48:45.616Z,61.19
2023-08-08T15:49:45.541Z,60.31
2023-08-08T15:50:45.467Z,59.55
2023-08-08T15:51:46.701Z,58.77
2023-08-08T15:52:45.344Z,59.06
2023-08-08T15:53:45.240Z,59.35
2023-08-08T15:54:45.180Z,59.25
2023-08-08T15:55:45.101Z,60.03
2023-08-08T15:56:45.029Z,57.87
2023-08-08T15:57:44.954Z,58.39
2023-08-08T15:58:44.896Z,58.97
2023-08-08T15:59:44.802Z,58.39
2023-08-08T16:00:44.759Z,58.19
2023-08-08T16:01:44.656Z,57.14
2023-08-08T16:02:44.647Z,58.00
2023-08-08T16:03:44.503Z,58.36
2023-08-08T16:04:44.435Z,59.71
2023-08-08T16:05:44.358Z,60.38
2023-08-08T16:06:44.297Z,60.48
2023-08-08T16:07:44.216Z,60.77
2023-08-08T16:08:44.144Z,59.93
2023-08-08T16:09:44.090Z,59.80
2023-08-08T16:10:43.999Z,59.03
2023-08-08T16:11:43.919Z,60.28
2023-08-08T16:12:43.840Z,59.52
2023-08-08T16:13:43.770Z,58.84
2023-08-08T16:14:43.708Z,58.55
2023-08-08T16:15:43.615Z,58.36
2023-08-08T16:16:43.561Z,58.94
2023-08-08T16:17:43.526Z,57.59
2023-08-08T16:18:43.394Z,57.29
2023-08-08T16:19:43.323Z,58.04
2023-08-08T16:20:43.259Z,56.69
2023-08-08T16:21:43.176Z,56.21
2023-08-08T16:22:43.095Z,57.65
2023-08-08T16:23:43.028Z,57.17
2023-08-08T16:24:42.955Z,56.79
2023-08-08T16:25:42.878Z,55.34
2023-08-08T16:26:42.801Z,55.15
2023-08-08T16:27:42.726Z,55.73
2023-08-08T16:28:42.649Z,57.27
2023-08-08T16:29:42.591Z,57.75
2023-08-08T16:30:42.601Z,57.85
2023-08-08T16:31:42.434Z,56.11
2023-08-08T16:32:42.374Z,56.01
2023-08-08T16:33:42.285Z,56.79
2023-08-08T16:34:42.212Z,58.33
2023-08-08T16:35:42.130Z,58.33
2023-08-08T16:36:42.066Z,57.07
2023-08-08T16:37:41.986Z,57.27
2023-08-08T16:38:41.916Z,57.94
2023-08-08T16:39:41.833Z,58.91
2023-08-08T16:40:41.867Z,59.00
2023-08-08T16:41:41.691Z,58.62
2023-08-08T16:42:41.614Z,57.65
2023-08-08T16:43:41.541Z,58.91
2023-08-08T16:44:41.466Z,59.78
2023-08-08T16:45:41.417Z,59.00
2023-08-08T16:46:41.320Z,57.94
2023-08-08T16:47:41.237Z,57.17
2023-08-08T16:48:41.173Z,59.00
2023-08-08T16:49:41.093Z,58.81
2023-08-08T16:50:41.013Z,59.48
2023-08-08T16:51:40.962Z,59.58
2023-08-08T16:52:40.871Z,58.14
2023-08-08T16:53:40.795Z,57.56
2023-08-08T16:54:40.719Z,57.75
2023-08-08T16:55:40.651Z,58.14
2023-08-08T16:56:40.582Z,56.95
2023-08-08T16:57:40.517Z,56.85
2023-08-08T16:58:40.424Z,55.89
2023-08-08T16:59:40.363Z,55.22
2023-08-08T17:00:40.341Z,56.18
2023-08-08T17:01:40.195Z,57.24
2023-08-08T17:02:40.154Z,59.55
2023-08-08T17:03:40.065Z,58.78
2023-08-08T17:04:39.975Z,59.07
2023-08-08T17:05:39.895Z,58.49
2023-08-08T17:06:39.830Z,59.84
2023-08-08T17:07:39.753Z,58.40
2023-08-08T17:08:39.674Z,58.30
2023-08-08T17:09:39.614Z,59.17
2023-08-08T17:10:39.532Z,58.69
2023-08-08T17:11:39.457Z,59.17
2023-08-08T17:12:39.375Z,60.03
2023-08-08T17:13:39.310Z,60.42
2023-08-08T17:14:39.237Z,59.75
2023-08-08T17:15:39.171Z,59.45
2023-08-08T17:16:39.148Z,59.17
2023-08-08T17:17:39.028Z,60.23
2023-08-08T17:18:38.943Z,59.94
2023-08-08T17:19:38.870Z,60.23
2023-08-08T17:20:38.786Z,60.97
2023-08-08T17:21:39.156Z,61.29
2023-08-08T17:22:38.764Z,61.45
2023-08-08T17:23:38.564Z,60.52
2023-08-08T17:24:40.665Z,60.03
2023-08-08T17:25:38.444Z,60.23
2023-08-08T17:26:38.338Z,61.07
2023-08-08T17:27:38.252Z,61.83
2023-08-08T17:28:38.296Z,61.65
2023-08-08T17:29:38.126Z,61.25
2023-08-08T17:30:38.066Z,61.07
2023-08-08T17:31:37.975Z,61.07
2023-08-08T17:32:37.918Z,59.81
2023-08-08T17:33:37.815Z,60.00
2023-08-08T17:34:37.742Z,60.30
2023-08-08T17:35:37.669Z,60.00
2023-08-08T17:36:37.605Z,60.39
2023-08-08T17:37:37.527Z,60.87
2023-08-08T17:38:37.438Z,61.25
2023-08-08T17:39:37.369Z,61.35
2023-08-08T17:40:37.289Z,62.99
2023-08-08T17:41:37.224Z,62.70
2023-08-08T17:42:37.139Z,62.70
2023-08-08T17:43:37.081Z,63.28
2023-08-08T17:44:37.085Z,62.90
2023-08-08T17:45:36.918Z,62.77
2023-08-08T17:46:36.876Z,62.77
2023-08-08T17:47:36.823Z,62.00
2023-08-08T17:48:36.693Z,62.67
2023-08-08T17:49:36.618Z,63.54
2023-08-08T17:50:36.542Z,63.44
2023-08-08T17:51:36.475Z,62.87
2023-08-08T17:52:36.397Z,63.54
2023-08-08T17:53:36.325Z,63.44
2023-08-08T17:54:36.263Z,64.50
2023-08-08T17:55:36.160Z,64.59
2023-08-08T17:56:36.086Z,65.56
2023-08-08T17:57:36.018Z,65.94
2023-08-08T17:58:35.946Z,65.75
2023-08-08T17:59:35.861Z,66.04
2023-08-08T18:00:35.896Z,65.17
2023-08-08T18:01:35.796Z,66.14
2023-08-08T18:02:35.775Z,65.75
2023-08-08T18:03:35.610Z,65.94
2023-08-08T18:04:35.495Z,66.81
2023-08-08T18:05:35.415Z,67.65
2023-08-08T18:06:35.333Z,68.32
2023-08-08T18:07:35.258Z,68.51
2023-08-08T18:08:35.192Z,68.03
2023-08-08T18:09:35.106Z,67.16
2023-08-08T18:10:35.039Z,66.78
2023-08-08T18:11:34.960Z,68.03
2023-08-08T18:12:34.886Z,68.99
2023-08-08T18:13:34.805Z,66.30
2023-08-08T18:14:34.737Z,65.43
2023-08-08T18:15:34.659Z,65.91
2023-08-08T18:16:34.725Z,66.68
2023-08-08T18:17:34.515Z,67.65
2023-08-08T18:18:34.448Z,67.26
2023-08-08T18:19:34.366Z,66.58
2023-08-08T18:20:34.308Z,64.86
2023-08-08T18:21:34.202Z,64.18
2023-08-08T18:22:34.130Z,64.18
2023-08-08T18:23:34.055Z,66.01
2023-08-08T18:24:33.988Z,66.30
2023-08-08T18:25:33.900Z,66.49
2023-08-08T18:26:33.832Z,66.97
2023-08-08T18:27:33.755Z,67.93
2023-08-08T18:28:33.681Z,66.94
2023-08-08T18:29:33.600Z,67.13
2023-08-08T18:30:33.522Z,65.97
2023-08-08T18:31:33.487Z,66.17
2023-08-08T18:32:33.426Z,65.59
2023-08-08T18:33:33.302Z,66.36
2023-08-08T18:34:33.229Z,67.22
2023-08-08T18:35:33.153Z,68.57
2023-08-08T18:36:33.071Z,68.76
2023-08-08T18:37:32.998Z,68.38
2023-08-08T18:38:32.927Z,70.21
2023-08-08T18:39:32.850Z,68.67
2023-08-08T18:40:32.774Z,68.76
2023-08-08T18:41:32.706Z,69.53
2023-08-08T18:42:33.311Z,70.68
2023-08-08T18:43:32.545Z,70.56
2023-08-08T18:44:32.471Z,70.98
2023-08-08T18:45:32.405Z,70.46
2023-08-08T18:46:32.316Z,69.79
2023-08-08T18:47:32.308Z,70.30
2023-08-08T18:48:32.183Z,70.21
2023-08-08T18:49:32.095Z,71.33
2023-08-08T18:50:32.032Z,71.52
2023-08-08T18:51:31.943Z,71.61
2023-08-08T18:52:31.870Z,72.38
2023-08-08T18:53:31.796Z,71.04
2023-08-08T18:54:31.785Z,71.14
2023-08-08T18:55:32.327Z,71.04
2023-08-08T18:56:31.566Z,71.61
2023-08-08T18:57:31.491Z,70.94
2023-08-08T18:58:31.412Z,70.65
2023-08-08T18:59:31.338Z,70.94
2023-08-08T19:00:31.255Z,71.23
2023-08-08T19:01:31.283Z,70.46
2023-08-08T19:02:31.206Z,70.07
2023-08-08T19:03:31.104Z,69.31
2023-08-08T19:04:30.964Z,70.17
2023-08-08T19:05:30.900Z,71.14
2023-08-08T19:06:30.811Z,72.67
2023-08-08T19:07:30.738Z,74.11
2023-08-08T19:08:31.326Z,73.63
2023-08-08T19:09:30.579Z,73.44
2023-08-08T19:10:30.496Z,71.39
2023-08-08T19:11:30.427Z,69.56
2023-08-08T19:12:30.356Z,69.12
2023-08-08T19:13:30.278Z,69.69
2023-08-08T19:14:30.195Z,69.85
2023-08-08T19:15:30.119Z,69.50
2023-08-08T19:16:30.074Z,68.12
2023-08-08T19:17:38.634Z,68.41
2023-08-08T19:18:29.964Z,68.15
2023-08-08T19:19:29.814Z,66.91
2023-08-08T19:20:29.787Z,67.10
2023-08-08T19:21:29.667Z,68.83
2023-08-08T19:22:29.584Z,69.21
2023-08-08T19:23:29.517Z,69.98
2023-08-08T19:24:29.435Z,70.27
2023-08-08T19:25:29.364Z,69.31
2023-08-08T19:26:29.292Z,69.40
2023-08-08T19:27:29.209Z,70.75
2023-08-08T19:28:29.141Z,71.48
2023-08-08T19:29:29.066Z,70.84
2023-08-08T19:30:28.980Z,70.04
2023-08-08T19:31:28.912Z,69.98
2023-08-08T19:32:28.836Z,70.17
2023-08-08T19:33:28.765Z,70.14
2023-08-08T19:34:28.702Z,70.72
2023-08-08T19:35:28.612Z,71.10
2023-08-08T19:36:28.530Z,71.29
2023-08-08T19:37:28.449Z,69.66
2023-08-08T19:38:28.388Z,69.56
2023-08-08T19:39:28.294Z,69.75
2023-08-08T19:40:28.235Z,71.19
2023-08-08T19:41:28.156Z,72.44
2023-08-08T19:42:28.071Z,72.92
2023-08-08T19:43:28.005Z,73.31
2023-08-08T19:44:27.909Z,72.83
2023-08-08T19:45:27.848Z,73.50
2023-08-08T19:46:27.825Z,72.92
2023-08-08T19:47:27.735Z,70.90
2023-08-08T19:48:27.618Z,71.87
2023-08-08T19:49:27.540Z,70.23
2023-08-08T19:50:27.464Z,69.75
2023-08-08T19:51:27.383Z,69.85
2023-08-08T19:52:27.414Z,70.04
2023-08-08T19:53:27.236Z,71.58
2023-08-08T19:54:27.154Z,71.48
2023-08-08T19:55:27.083Z,71.48
2023-08-08T19:56:27.006Z,71.96
2023-08-08T19:57:26.938Z,71.87
2023-08-08T19:58:26.864Z,71.00
2023-08-08T19:59:26.778Z,71.96
2023-08-08T20:00:26.701Z,71.96
2023-08-08T20:01:26.677Z,73.31
2023-08-08T20:02:26.591Z,73.31
2023-08-08T20:03:26.554Z,73.60
2023-08-08T20:04:26.387Z,73.69
2023-08-08T20:05:26.340Z,73.31
2023-08-08T20:06:26.249Z,73.69
2023-08-08T20:07:26.171Z,74.46
2023-08-08T20:08:26.189Z,75.42
2023-08-08T20:09:26.017Z,75.62
2023-08-08T20:10:25.948Z,76.06
2023-08-08T20:11:25.862Z,75.57
2023-08-08T20:12:25.784Z,74.81
2023-08-08T20:13:25.720Z,74.13
2023-08-08T20:14:25.627Z,73.37
2023-08-08T20:15:25.558Z,73.37
2023-08-08T20:16:25.574Z,73.37
2023-08-08T20:17:25.453Z,73.37
2023-08-08T20:18:25.328Z,73.56
2023-08-08T20:19:25.261Z,74.23
2023-08-08T20:20:25.176Z,74.23
2023-08-08T20:21:25.093Z,73.37
2023-08-08T20:22:25.019Z,73.37
2023-08-08T20:23:24.945Z,74.23
2023-08-08T20:24:24.867Z,73.85
2023-08-08T20:25:24.792Z,72.89
2023-08-08T20:26:24.724Z,72.69
2023-08-08T20:27:24.630Z,73.18
2023-08-08T20:28:24.575Z,73.46
2023-08-08T20:29:24.488Z,72.99
2023-08-08T20:30:24.425Z,72.99
2023-08-08T20:31:24.373Z,73.56
2023-08-08T20:32:24.262Z,73.94
2023-08-08T20:33:24.184Z,74.52
2023-08-08T20:34:24.105Z,73.37
2023-08-08T20:35:24.042Z,73.18
2023-08-08T20:36:23.953Z,72.79
2023-08-08T20:37:23.878Z,73.18
2023-08-08T20:38:23.805Z,73.46
2023-08-08T20:39:23.732Z,73.46
2023-08-08T20:40:23.653Z,73.46
2023-08-08T20:41:23.572Z,73.37
2023-08-08T20:42:23.503Z,74.04
2023-08-08T20:43:23.412Z,74.43
2023-08-08T20:44:23.351Z,74.33
2023-08-08T20:45:23.277Z,73.94
2023-08-08T20:46:23.188Z,73.75
2023-08-08T20:47:23.113Z,73.46
2023-08-08T20:48:23.405Z,73.56
2023-08-08T20:49:22.953Z,73.56
2023-08-08T20:50:22.912Z,73.27
2023-08-08T20:51:22.818Z,73.27
2023-08-08T20:52:22.739Z,73.27
2023-08-08T20:53:22.654Z,74.04
2023-08-08T20:54:22.575Z,74.23
2023-08-08T20:55:22.533Z,74.23
2023-08-08T20:56:22.520Z,74.62
2023-08-08T20:57:22.350Z,74.62
2023-08-08T20:58:22.275Z,74.43
2023-08-08T20:59:22.189Z,74.33
2023-08-08T21:00:22.124Z,74.04
2023-08-08T21:01:22.078Z,74.71
2023-08-08T21:02:22.000Z,74.33
2023-08-08T21:03:21.952Z,75.00
2023-08-08T21:04:21.814Z,75.10
2023-08-08T21:05:21.747Z,75.20
2023-08-08T21:06:21.655Z,74.90
2023-08-08T21:07:21.585Z,75.20
2023-08-08T21:08:21.509Z,75.10
2023-08-08T21:09:21.420Z,75.00
2023-08-08T21:10:21.355Z,75.10
2023-08-08T21:11:21.280Z,75.00
2023-08-08T21:12:21.304Z,75.00
2023-08-08T21:13:21.137Z,75.77
2023-08-08T21:14:21.046Z,76.34
2023-08-08T21:15:20.968Z,76.25
2023-08-08T21:16:20.909Z,76.64
2023-08-08T21:17:20.813Z,76.40
2023-08-08T21:18:20.736Z,76.21
2023-08-08T21:19:20.665Z,76.40
2023-08-08T21:20:20.596Z,76.21
2023-08-08T21:21:20.509Z,76.12
2023-08-08T21:22:20.430Z,76.40
2023-08-08T21:23:20.352Z,76.98
2023-08-08T21:24:20.276Z,77.08
2023-08-08T21:25:20.202Z,77.17
2023-08-08T21:26:26.305Z,76.98
2023-08-08T21:27:20.041Z,77.75
2023-08-08T21:28:20.155Z,78.32
2023-08-08T21:29:19.888Z,78.00
2023-08-08T21:30:19.818Z,77.17
2023-08-08T21:31:19.796Z,76.98
2023-08-08T21:32:19.752Z,76.98
2023-08-08T21:33:19.581Z,77.17
2023-08-08T21:34:19.612Z,78.03
2023-08-08T21:35:19.440Z,78.13
2023-08-08T21:36:19.356Z,78.03
2023-08-08T21:37:19.269Z,78.09
2023-08-08T21:38:19.203Z,77.75
2023-08-08T21:39:19.126Z,78.32
2023-08-08T21:40:19.064Z,78.00
2023-08-08T21:41:18.978Z,77.75
2023-08-08T21:42:18.907Z,78.70
2023-08-08T21:43:18.819Z,78.61
2023-08-08T21:44:18.848Z,78.42
2023-08-08T21:45:18.657Z,79.34
2023-08-08T21:46:18.618Z,79.28
2023-08-08T21:47:18.514Z,79.24
2023-08-08T21:48:18.446Z,79.91
2023-08-08T21:49:18.366Z,79.24
2023-08-08T21:50:18.280Z,79.14
2023-08-08T21:51:18.208Z,78.77
2023-08-08T21:52:18.135Z,79.34
2023-08-08T21:53:18.049Z,78.96
2023-08-08T21:54:18.043Z,79.53
2023-08-08T21:55:17.925Z,79.14
2023-08-08T21:56:17.821Z,79.34
2023-08-08T21:57:17.743Z,79.24
2023-08-08T21:58:17.667Z,79.34
2023-08-08T21:59:17.586Z,79.14
2023-08-08T22:00:17.627Z,79.44
2023-08-08T22:01:17.520Z,79.91
2023-08-08T22:02:17.432Z,80.68
2023-08-08T22:03:17.331Z,80.78
2023-08-08T22:04:17.246Z,80.87
2023-08-08T22:05:17.128Z,80.58
2023-08-08T22:06:17.058Z,81.64